Time;durP1;ratioP1;P1;durP2;ratioP2;P2;SDS_P1;SDS_P2;PMS_P1;PMS_P2;Temp;Humidity;BMP_temperature;BMP_pressure;BME280_temperature;BME280_humidity;BME280_pressure;Samples;Min_cycle;Max_cycle;Signal;HPM_P1;HPM_P2
2022/08/10 00:02:03;;;;;;;6.75;4.50;;;18.70;99.90;;;;;;4213862;28;20032;-63
2022/08/10 00:04:04;;;;;;;5.03;4.45;;;18.60;99.90;;;;;;4213291;28;20028;-64
2022/08/10 00:06:05;;;;;;;4.93;4.38;;;18.60;99.90;;;;;;4214099;28;20440;-63
2022/08/10 00:08:07;;;;;;;5.65;4.05;;;18.50;99.90;;;;;;4212864;28;20060;-63
2022/08/10 00:10:09;;;;;;;6.43;3.97;;;18.50;99.90;;;;;;4214042;28;20058;-67
2022/08/10 00:12:10;;;;;;;4.40;4.00;;;18.50;99.90;;;;;;4212853;28;20085;-64
2022/08/10 00:14:11;;;;;;;4.45;4.05;;;18.50;99.90;;;;;;4214164;28;20410;-63
2022/08/10 00:16:12;;;;;;;5.55;4.50;;;18.40;99.90;;;;;;4212823;28;20085;-63
2022/08/10 00:18:13;;;;;;;7.50;4.53;;;18.40;99.90;;;;;;4213968;28;20028;-63
2022/08/10 00:20:15;;;;;;;8.07;3.72;;;18.30;99.90;;;;;;4212780;28;20085;-64
2022/08/10 00:22:16;;;;;;;5.70;3.90;;;18.30;99.90;;;;;;4213539;28;20097;-62
2022/08/10 00:24:17;;;;;;;7.68;3.35;;;18.30;99.90;;;;;;4212143;28;20036;-63
2022/08/10 00:26:19;;;;;;;3.80;3.50;;;18.20;99.90;;;;;;4212306;28;20028;-64
2022/08/10 00:28:20;;;;;;;5.85;3.80;;;18.20;99.90;;;;;;4212461;28;20136;-63
2022/08/10 00:30:21;;;;;;;3.40;3.10;;;18.30;99.90;;;;;;4213382;28;20020;-65
2022/08/10 00:32:23;;;;;;;3.60;3.25;;;18.20;99.90;;;;;;4213124;28;20036;-63
2022/08/10 00:34:24;;;;;;;3.58;3.28;;;18.30;99.90;;;;;;4212972;28;20079;-63
2022/08/10 00:36:25;;;;;;;3.30;3.00;;;18.30;99.90;;;;;;4213525;28;20040;-63
2022/08/10 00:38:26;;;;;;;6.78;3.45;;;18.20;99.90;;;;;;4212549;28;20078;-63
2022/08/10 00:40:27;;;;;;;3.67;2.97;;;18.20;99.90;;;;;;4213641;28;20031;-63
2022/08/10 00:42:29;;;;;;;5.38;3.17;;;18.20;99.90;;;;;;4212561;28;20379;-64
2022/08/10 00:44:30;;;;;;;5.45;3.38;;;18.20;99.90;;;;;;4213635;28;20452;-63
2022/08/10 00:46:31;;;;;;;6.18;3.53;;;18.10;99.90;;;;;;4212380;28;20020;-63
2022/08/10 00:48:32;;;;;;;6.03;3.58;;;18.00;99.90;;;;;;4212923;28;20036;-63
2022/08/10 00:50:33;;;;;;;6.03;3.72;;;18.00;99.90;;;;;;4212299;28;20452;-63
2022/08/10 00:52:36;;;;;;;8.85;4.13;;;17.90;99.90;;;;;;4213424;28;20032;-63
2022/08/10 00:54:37;;;;;;;8.20;3.53;;;17.80;99.90;;;;;;4212312;28;20028;-63
2022/08/10 00:56:38;;;;;;;4.07;3.40;;;17.80;99.90;;;;;;4212984;28;20036;-64
2022/08/10 00:58:40;;;;;;;3.78;3.38;;;17.80;99.90;;;;;;4212516;28;20024;-63
2022/08/10 01:00:41;;;;;;;3.90;3.47;;;17.80;99.90;;;;;;4212990;28;20460;-63
2022/08/10 01:02:43;;;;;;;6.38;4.00;;;17.80;99.90;;;;;;4212628;28;20020;-64
2022/08/10 01:04:44;;;;;;;7.18;4.50;;;17.80;99.90;;;;;;4212431;28;20093;-63
2022/08/10 01:06:48;;;;;;;7.18;4.30;;;17.80;99.90;;;;;;4212425;28;20449;-66
2022/08/10 01:09:20;;;;;;;5.15;4.50;;;17.70;99.90;;;;;;4212077;28;20078;-63
2022/08/10 01:11:37;;;;;;;8.68;5.13;;;17.70;99.90;;;;;;4211814;28;20101;-63
2022/08/10 01:13:56;;;;;;;5.85;4.95;;;17.70;99.90;;;;;;4212682;28;20529;-63
2022/08/10 01:16:04;;;;;;;8.20;4.75;;;17.70;99.90;;;;;;4212079;28;20422;-63
2022/08/10 01:18:16;;;;;;;9.48;5.38;;;17.70;99.90;;;;;;4212753;28;20069;-62
2022/08/10 01:20:23;;;;;;;6.38;5.78;;;17.70;99.90;;;;;;4212145;28;20028;-63
2022/08/10 01:22:51;;;;;;;7.07;5.43;;;17.80;99.90;;;;;;4212556;28;20537;-63
2022/08/10 01:25:01;;;;;;;6.97;6.28;;;17.80;99.90;;;;;;4211263;28;20090;-64
2022/08/10 01:27:23;;;;;;;8.38;6.53;;;17.80;99.90;;;;;;4212921;28;20028;-68
2022/08/10 01:29:31;;;;;;;10.85;6.90;;;17.70;99.90;;;;;;4210845;28;20140;-63
2022/08/10 01:31:40;;;;;;;8.55;5.80;;;17.70;99.90;;;;;;4212887;28;20077;-63
2022/08/10 01:33:50;;;;;;;7.70;6.72;;;17.60;99.90;;;;;;4211455;28;20736;-63
2022/08/10 01:36:00;;;;;;;8.85;6.40;;;17.60;99.90;;;;;;4212526;28;20081;-63
2022/08/10 01:38:33;;;;;;;9.00;6.72;;;17.50;99.90;;;;;;4211426;28;20036;-64
2022/08/10 01:40:38;;;;;;;8.30;6.63;;;17.50;99.90;;;;;;4194269;28;20070;-63
2022/08/10 01:42:44;;;;;;;11.20;7.63;;;17.60;99.90;;;;;;4211179;28;20044;-63
2022/08/10 01:44:51;;;;;;;9.65;7.60;;;17.60;99.90;;;;;;4212262;28;20044;-63
2022/08/10 01:48:27;;;;;;;8.95;6.60;;;17.50;99.90;;;;;;4211467;28;20077;-62
2022/08/10 01:49:21;;;;;;;8.20;6.40;;;17.50;99.90;;;;;;4212461;28;20028;-62
2022/08/10 01:51:49;;;;;;;9.57;7.68;;;17.60;99.90;;;;;;4211354;28;20539;-64
2022/08/10 01:53:57;;;;;;;11.50;7.40;;;17.70;99.90;;;;;;4212368;28;20419;-70
2022/08/10 01:56:00;;;;;;;10.48;6.95;;;17.70;99.90;;;;;;4210241;28;20040;-63
2022/08/10 01:58:04;;;;;;;8.93;6.82;;;17.70;99.90;;;;;;4211469;28;20039;-65
2022/08/10 02:00:07;;;;;;;8.90;6.57;;;17.70;99.90;;;;;;4211278;28;20028;-66
2022/08/10 02:02:10;;;;;;;8.32;5.97;;;17.80;99.90;;;;;;4212420;28;20020;-63
2022/08/10 02:04:12;;;;;;;9.32;6.28;;;17.70;99.90;;;;;;4211430;28;20024;-64
2022/08/10 02:06:16;;;;;;;8.38;6.03;;;17.70;99.90;;;;;;4212191;28;20109;-63
2022/08/10 02:08:19;;;;;;;9.18;6.20;;;17.70;99.90;;;;;;4210591;28;20056;-63
2022/08/10 02:10:22;;;;;;;8.52;6.28;;;17.70;99.90;;;;;;4212269;28;20475;-64
2022/08/10 02:12:28;;;;;;;11.10;6.90;;;17.60;99.90;;;;;;4210389;28;20048;-64
2022/08/10 02:14:35;;;;;;;9.98;7.05;;;17.60;99.90;;;;;;4211020;28;20036;-64
2022/08/10 02:16:38;;;;;;;8.25;6.25;;;17.60;99.90;;;;;;4210353;28;20489;-64
2022/08/10 02:18:41;;;;;;;9.18;6.65;;;17.50;99.90;;;;;;4211779;28;20020;-64
2022/08/10 02:20:48;;;;;;;8.98;6.75;;;17.50;99.90;;;;;;4210671;28;20040;-66
2022/08/10 02:22:57;;;;;;;7.68;6.20;;;17.50;99.90;;;;;;4211130;28;20108;-64
2022/08/10 02:25:00;;;;;;;9.48;6.88;;;17.50;99.90;;;;;;4210627;28;20089;-63
2022/08/10 02:27:04;;;;;;;9.38;6.97;;;17.60;99.90;;;;;;4210786;28;20040;-63
2022/08/10 02:29:07;;;;;;;13.68;7.47;;;17.60;99.90;;;;;;4211301;28;20082;-64
2022/08/10 02:31:12;;;;;;;10.60;7.03;;;17.60;99.90;;;;;;4211040;28;20074;-64
2022/08/10 02:33:16;;;;;;;9.93;7.03;;;17.70;99.90;;;;;;4211082;28;20035;-63
2022/08/10 02:35:19;;;;;;;7.32;5.85;;;17.60;99.90;;;;;;4210726;28;20012;-63
2022/08/10 02:37:23;;;;;;;8.25;6.32;;;17.70;99.90;;;;;;4211732;28;20040;-63
2022/08/10 02:39:26;;;;;;;13.02;5.63;;;17.70;99.90;;;;;;4210221;28;20063;-64
2022/08/10 02:41:54;;;;;;;10.15;6.07;;;17.60;99.90;;;;;;4211256;28;20040;-64
2022/08/10 02:44:04;;;;;;;8.02;5.72;;;17.70;99.90;;;;;;4210628;28;20028;-64
2022/08/10 02:46:13;;;;;;;7.90;5.38;;;17.60;99.90;;;;;;4211128;28;20089;-65
2022/08/10 02:48:26;;;;;;;7.15;5.82;;;17.50;99.90;;;;;;4209024;28;20052;-63
2022/08/10 02:50:30;;;;;;;8.88;5.65;;;17.50;99.90;;;;;;4211544;28;20028;-62
2022/08/10 02:52:41;;;;;;;8.05;5.43;;;17.50;99.90;;;;;;4209740;28;20032;-62
2022/08/10 02:54:51;;;;;;;7.68;5.85;;;17.50;99.90;;;;;;4211519;28;20054;-63
2022/08/10 02:57:05;;;;;;;7.57;5.82;;;17.40;99.90;;;;;;4192064;28;20066;-64
2022/08/10 02:59:11;;;;;;;6.65;5.43;;;17.40;99.90;;;;;;4211349;28;20017;-63
2022/08/10 03:01:18;;;;;;;6.97;5.43;;;17.40;99.90;;;;;;4210533;28;20513;-64
2022/08/10 03:03:25;;;;;;;6.93;5.78;;;17.40;99.90;;;;;;4211510;28;20085;-64
2022/08/10 03:05:27;;;;;;;12.07;5.70;;;17.40;99.90;;;;;;4210356;28;20032;-63
2022/08/10 03:07:35;;;;;;;10.15;6.03;;;17.30;99.90;;;;;;4211046;28;20176;-69
2022/08/10 03:09:38;;;;;;;6.15;5.28;;;17.30;99.90;;;;;;4209548;28;20766;-64
2022/08/10 03:11:42;;;;;;;7.15;4.82;;;17.30;99.90;;;;;;4211010;28;20058;-71
2022/08/10 03:13:44;;;;;;;9.20;5.78;;;17.30;99.90;;;;;;4210361;28;20025;-72
2022/08/10 03:15:49;;;;;;;8.27;5.50;;;17.40;99.90;;;;;;4211001;28;20581;-68
2022/08/10 03:17:52;;;;;;;7.72;5.80;;;17.40;99.90;;;;;;4210218;28;20065;-64
2022/08/10 03:19:55;;;;;;;7.80;5.68;;;17.50;99.90;;;;;;4210950;28;20040;-64
2022/08/10 03:21:57;;;;;;;7.43;5.00;;;17.50;99.90;;;;;;4209855;28;20036;-63
2022/08/10 03:24:01;;;;;;;6.60;5.47;;;17.50;99.90;;;;;;4211505;28;20050;-63
2022/08/10 03:26:02;;;;;;;7.22;4.53;;;17.50;99.90;;;;;;4210019;28;20021;-64
2022/08/10 03:28:04;;;;;;;7.80;5.30;;;17.50;99.90;;;;;;4210675;28;20044;-63
2022/08/10 03:30:06;;;;;;;6.45;5.00;;;17.50;99.90;;;;;;4209492;28;20032;-64
2022/08/10 03:32:10;;;;;;;6.97;4.93;;;17.50;99.90;;;;;;4210784;28;20077;-63
2022/08/10 03:34:13;;;;;;;6.13;5.05;;;17.50;99.90;;;;;;4210443;28;20024;-63
2022/08/10 03:36:14;;;;;;;6.45;5.00;;;17.60;99.90;;;;;;4210662;28;20434;-64
2022/08/10 03:38:15;;;;;;;8.50;5.35;;;17.60;99.90;;;;;;4210571;28;20439;-64
2022/08/10 03:40:16;;;;;;;5.95;4.45;;;17.60;99.90;;;;;;4209338;28;20168;-63
2022/08/10 03:42:21;;;;;;;6.32;4.72;;;17.60;99.90;;;;;;4210893;28;20726;-64
2022/08/10 03:44:30;;;;;;;6.80;4.85;;;17.70;99.90;;;;;;4209450;28;20049;-66
2022/08/10 03:46:34;;;;;;;5.80;4.75;;;17.80;99.90;;;;;;4211065;28;20028;-71
2022/08/10 03:48:37;;;;;;;7.28;4.43;;;17.80;99.90;;;;;;4209915;28;20430;-64
2022/08/10 03:50:39;;;;;;;5.03;4.00;;;17.80;99.90;;;;;;4210800;28;20028;-65
2022/08/10 03:52:40;;;;;;;4.95;3.85;;;17.90;99.90;;;;;;4209858;28;20040;-64
2022/08/10 03:54:42;;;;;;;3.95;3.55;;;17.90;99.90;;;;;;4210890;28;20148;-65
2022/08/10 03:56:44;;;;;;;5.03;4.35;;;17.90;99.90;;;;;;4209454;28;20503;-63
2022/08/10 03:58:45;;;;;;;5.13;3.92;;;17.90;99.90;;;;;;4210471;28;20058;-69
2022/08/10 04:00:49;;;;;;;4.80;4.22;;;17.90;99.90;;;;;;4211889;28;20058;-64
2022/08/10 04:02:52;;;;;;;3.78;3.38;;;17.80;99.90;;;;;;4213973;28;20071;-64
2022/08/10 04:04:53;;;;;;;8.73;4.28;;;17.80;99.90;;;;;;4212769;28;20028;-65
2022/08/10 04:06:59;;;;;;;5.75;3.90;;;17.80;99.90;;;;;;4213688;28;20081;-64
2022/08/10 04:09:02;;;;;;;6.63;4.50;;;17.90;99.90;;;;;;4212920;28;20036;-64
2022/08/10 04:11:03;;;;;;;4.95;3.75;;;17.90;99.90;;;;;;4212872;28;20090;-66
2022/08/10 04:13:05;;;;;;;5.65;4.30;;;18.00;99.90;;;;;;4213137;28;20435;-65
2022/08/10 04:15:06;;;;;;;6.80;4.97;;;18.10;99.90;;;;;;4213107;28;20020;-65
2022/08/10 04:17:07;;;;;;;5.47;4.30;;;18.10;99.90;;;;;;4213093;28;20467;-65
2022/08/10 04:19:10;;;;;;;16.55;8.00;;;18.10;99.90;;;;;;4212563;28;20032;-64
2022/08/10 04:21:16;;;;;;;53.85;20.23;;;18.20;99.90;;;;;;4213729;28;20024;-64
2022/08/10 04:23:27;;;;;;;10.60;5.53;;;18.20;99.90;;;;;;4212059;28;20434;-64
2022/08/10 04:25:29;;;;;;;8.38;5.63;;;18.30;99.90;;;;;;4213314;28;20032;-66
2022/08/10 04:27:31;;;;;;;14.20;6.88;;;18.30;99.90;;;;;;4212491;28;20032;-65
2022/08/10 04:29:32;;;;;;;16.08;7.88;;;18.40;99.90;;;;;;4213562;28;20058;-65
2022/08/10 04:31:35;;;;;;;9.77;5.53;;;18.40;99.90;;;;;;4212343;28;20418;-65
2022/08/10 04:33:40;;;;;;;10.02;5.32;;;18.40;99.90;;;;;;4201244;28;20086;-65
2022/08/10 04:35:44;;;;;;;6.55;3.80;;;18.50;99.90;;;;;;4194438;28;20025;-64
2022/08/10 04:37:47;;;;;;;3.58;2.83;;;18.50;99.90;;;;;;4195391;28;20488;-64
2022/08/10 04:39:48;;;;;;;5.95;2.75;;;18.60;99.90;;;;;;4195030;28;20546;-67
2022/08/10 04:41:49;;;;;;;4.65;2.90;;;18.60;99.90;;;;;;4196593;28;20419;-65
2022/08/10 04:43:51;;;;;;;3.75;3.20;;;18.60;99.90;;;;;;4195287;28;20044;-65
2022/08/10 04:45:52;;;;;;;5.78;3.20;;;18.60;99.90;;;;;;4196687;28;20036;-65
2022/08/10 04:47:53;;;;;;;6.10;3.15;;;18.70;99.90;;;;;;4195284;28;20033;-64
2022/08/10 04:49:54;;;;;;;3.00;2.78;;;18.70;99.90;;;;;;4195740;28;20045;-63
2022/08/10 04:51:55;;;;;;;3.92;3.08;;;18.70;99.90;;;;;;4195595;28;20036;-67
2022/08/10 04:53:56;;;;;;;3.35;2.63;;;18.60;99.90;;;;;;4195464;28;20041;-73
2022/08/10 04:55:57;;;;;;;5.38;2.45;;;18.60;99.90;;;;;;4212451;28;20449;-64
2022/08/10 04:57:59;;;;;;;2.72;2.53;;;18.60;99.90;;;;;;4211256;28;20047;-65
2022/08/10 05:00:00;;;;;;;3.15;2.05;;;18.50;99.90;;;;;;4212540;28;20464;-65
2022/08/10 05:02:01;;;;;;;2.67;2.47;;;18.50;99.90;;;;;;4211789;28;20035;-65
2022/08/10 05:04:02;;;;;;;5.03;2.28;;;18.50;99.90;;;;;;4210614;28;20097;-65
2022/08/10 05:06:04;;;;;;;1.90;1.80;;;18.60;99.90;;;;;;4211806;28;20496;-68
2022/08/10 05:08:05;;;;;;;5.50;2.17;;;18.50;99.90;;;;;;4212235;28;20039;-66
2022/08/10 05:10:06;;;;;;;4.40;2.08;;;18.50;99.90;;;;;;4211084;28;20040;-66
2022/08/10 05:12:08;;;;;;;3.80;2.42;;;18.50;99.90;;;;;;4211784;28;20043;-66
2022/08/10 05:14:09;;;;;;;3.22;2.60;;;18.50;99.90;;;;;;4211623;28;20028;-65
2022/08/10 05:16:10;;;;;;;2.33;2.13;;;18.50;99.90;;;;;;4212288;28;20032;-64
2022/08/10 05:18:11;;;;;;;4.05;2.70;;;18.50;99.90;;;;;;4211676;28;20066;-65
2022/08/10 05:20:12;;;;;;;2.55;2.35;;;18.60;99.90;;;;;;4212167;28;20028;-66
2022/08/10 05:22:13;;;;;;;2.72;2.53;;;18.60;99.90;;;;;;4211711;28;20476;-69
2022/08/10 05:24:15;;;;;;;4.50;3.00;;;18.60;99.90;;;;;;4193660;28;20040;-65
2022/08/10 05:26:16;;;;;;;4.32;2.30;;;18.70;99.90;;;;;;4211878;28;20028;-65
2022/08/10 05:28:17;;;;;;;2.28;2.08;;;18.80;99.90;;;;;;4210521;28;20450;-66
2022/08/10 05:30:20;;;;;;;6.00;3.00;;;18.90;99.90;;;;;;4211758;28;20456;-64
2022/08/10 05:32:22;;;;;;;6.75;3.17;;;18.90;99.90;;;;;;4210316;28;20408;-64
2022/08/10 05:34:26;;;;;;;2.75;1.70;;;18.90;99.90;;;;;;4212285;28;20021;-64
2022/08/10 05:36:27;;;;;;;3.38;1.88;;;18.90;99.90;;;;;;4210811;28;20040;-65
2022/08/10 05:38:29;;;;;;;2.78;1.95;;;19.00;99.90;;;;;;4212174;28;20097;-63
2022/08/10 05:40:31;;;;;;;1.98;1.50;;;19.00;99.90;;;;;;4210986;28;20020;-66
2022/08/10 05:42:32;;;;;;;4.72;3.60;;;19.10;99.90;;;;;;4211915;28;20028;-65
2022/08/10 05:44:33;;;;;;;2.63;2.30;;;19.20;99.90;;;;;;4210865;28;20101;-65
2022/08/10 05:46:34;;;;;;;9.48;7.95;;;19.20;99.90;;;;;;4212152;28;20807;-66
2022/08/10 05:48:37;;;;;;;6.22;3.03;;;19.30;99.90;;;;;;4210352;28;20072;-64
2022/08/10 05:50:38;;;;;;;2.75;2.00;;;19.30;99.90;;;;;;4211289;28;20052;-65
2022/08/10 05:52:39;;;;;;;2.20;2.00;;;19.40;99.90;;;;;;4211561;28;20456;-63
2022/08/10 05:54:42;;;;;;;4.97;2.50;;;19.50;99.90;;;;;;4211449;28;20035;-63
2022/08/10 05:56:45;;;;;;;1.60;1.50;;;19.60;99.90;;;;;;4211010;28;20533;-65
2022/08/10 05:58:46;;;;;;;2.08;1.95;;;19.70;99.90;;;;;;4211261;28;20028;-64
2022/08/10 06:00:53;;;;;;;6.45;2.78;;;19.70;99.90;;;;;;4211521;28;20096;-64
2022/08/10 06:03:02;;;;;;;2.15;1.35;;;19.70;99.90;;;;;;4210708;28;20081;-66
2022/08/10 06:05:24;;;;;;;2.42;1.55;;;19.80;99.90;;;;;;4210343;28;20086;-67
2022/08/10 06:07:27;;;;;;;2.38;1.58;;;19.80;99.90;;;;;;4210354;28;20085;-65
2022/08/10 06:09:30;;;;;;;4.10;1.50;;;19.80;99.90;;;;;;4211100;28;20469;-65
2022/08/10 06:11:32;;;;;;;1.85;1.30;;;20.00;99.90;;;;;;4209049;28;20097;-64
2022/08/10 06:15:55;;;;;;;1.27;1.17;;;20.20;99.90;;;;;;4210311;28;20028;-65
2022/08/10 06:17:58;;;;;;;3.10;1.52;;;20.30;99.90;;;;;;4211268;28;20123;-65
2022/08/10 06:20:00;;;;;;;1.23;1.13;;;20.40;99.90;;;;;;4209813;28;20044;-65
2022/08/10 06:22:02;;;;;;;2.33;1.58;;;20.50;99.90;;;;;;4211303;28;20036;-65
2022/08/10 06:24:06;;;;;;;5.60;2.50;;;20.50;99.90;;;;;;4209526;28;20020;-65
2022/08/10 06:26:07;;;;;;;2.90;1.60;;;20.70;99.90;;;;;;4211482;28;20020;-65
2022/08/10 06:28:14;;;;;;;2.40;1.73;;;20.70;99.90;;;;;;4210307;28;20016;-65
2022/08/10 06:30:16;;;;;;;1.70;1.60;;;20.70;99.90;;;;;;4210970;28;20066;-64
2022/08/10 06:32:18;;;;;;;2.20;2.00;;;20.80;99.90;;;;;;4210569;28;20024;-64
2022/08/10 06:34:32;;;;;;;1.50;1.40;;;20.90;99.90;;;;;;4210849;28;20438;-65
2022/08/10 06:36:36;;;;;;;2.90;1.80;;;21.00;99.90;;;;;;4210492;28;20345;-66
2022/08/10 06:38:38;;;;;;;2.88;1.60;;;21.10;99.90;;;;;;4210589;28;20048;-66
2022/08/10 06:40:43;;;;;;;6.75;1.70;;;21.10;99.90;;;;;;4210172;28;20036;-68
2022/08/10 06:42:48;;;;;;;3.53;2.00;;;21.10;99.90;;;;;;4211111;28;20040;-65
2022/08/10 06:45:06;;;;;;;3.75;1.90;;;21.00;99.90;;;;;;4210235;28;20484;-65
2022/08/10 06:47:10;;;;;;;2.40;1.95;;;21.00;99.90;;;;;;4211441;28;20044;-66
2022/08/10 06:49:14;;;;;;;2.05;1.67;;;20.90;99.90;;;;;;4210087;28;20028;-65
2022/08/10 06:51:26;;;;;;;2.70;1.98;;;20.90;99.90;;;;;;4211303;28;20021;-65
2022/08/10 06:53:33;;;;;;;1.95;1.85;;;21.00;99.90;;;;;;4210200;28;20431;-66
2022/08/10 06:55:35;;;;;;;4.05;2.13;;;20.90;99.90;;;;;;4209964;28;20387;-66
2022/08/10 06:57:39;;;;;;;3.00;1.90;;;20.90;99.90;;;;;;4209743;28;20109;-70
2022/08/10 06:59:44;;;;;;;3.15;1.83;;;21.00;99.90;;;;;;4210829;28;20082;-65
2022/08/10 07:02:08;;;;;;;4.30;2.03;;;21.00;99.90;;;;;;4210259;28;20024;-71
2022/08/10 07:04:21;;;;;;;3.47;1.85;;;21.00;99.90;;;;;;4210151;28;20036;-67
2022/08/10 07:06:23;;;;;;;3.63;1.77;;;21.00;99.90;;;;;;4210058;28;20414;-68
2022/08/10 07:08:25;;;;;;;4.03;2.15;;;21.00;99.90;;;;;;4210555;28;20093;-65
2022/08/10 07:10:27;;;;;;;3.75;1.55;;;21.00;99.90;;;;;;4209486;28;20066;-66
2022/08/10 07:12:30;;;;;;;1.70;1.50;;;21.00;99.90;;;;;;4191928;28;20118;-65
2022/08/10 07:14:33;;;;;;;4.65;1.73;;;21.00;99.90;;;;;;4209907;28;20044;-68
2022/08/10 07:16:41;;;;;;;8.43;2.38;;;20.90;99.90;;;;;;4210079;28;20035;-72
2022/08/10 07:18:46;;;;;;;4.45;2.10;;;20.80;99.90;;;;;;4210349;28;20028;-68
2022/08/10 07:20:50;;;;;;;4.38;2.10;;;20.60;99.90;;;;;;4209271;28;20040;-68
2022/08/10 07:22:53;;;;;;;2.95;1.13;;;20.40;99.90;;;;;;4210927;28;20414;-69
2022/08/10 07:24:56;;;;;;;2.30;1.25;;;20.00;99.90;;;;;;4209039;28;20036;-69
2022/08/10 07:26:58;;;;;;;4.63;1.33;;;19.80;99.90;;;;;;4210710;28;20032;-70
2022/08/10 07:29:00;;;;;;;2.78;2.50;;;19.70;99.90;;;;;;4206162;28;20028;-66
2022/08/10 07:31:01;;;;;;;3.63;1.30;;;19.70;99.90;;;;;;4210461;28;20036;-66
2022/08/10 07:33:05;;;;;;;1.70;1.60;;;19.60;99.90;;;;;;4209943;28;20032;-66
2022/08/10 07:35:10;;;;;;;3.28;2.60;;;19.60;99.90;;;;;;4211850;28;20121;-64
2022/08/10 07:37:13;;;;;;;1.65;0.80;;;19.70;99.90;;;;;;4213289;28;20036;-63
2022/08/10 07:39:15;;;;;;;2.70;0.90;;;19.70;99.90;;;;;;4213798;28;20044;-65
2022/08/10 07:41:18;;;;;;;2.28;1.20;;;19.70;99.90;;;;;;4213077;28;20529;-63
2022/08/10 07:43:23;;;;;;;3.83;1.90;;;19.70;99.90;;;;;;4214278;28;20024;-66
2022/08/10 07:45:32;;;;;;;3.05;1.27;;;19.70;99.90;;;;;;4212367;28;20070;-65
2022/08/10 07:47:49;;;;;;;2.92;2.10;;;19.70;99.90;;;;;;4214002;28;20020;-64
2022/08/10 07:49:54;;;;;;;2.08;1.08;;;19.70;99.90;;;;;;4212843;28;20360;-63
2022/08/10 07:51:56;;;;;;;1.10;0.98;;;19.70;99.90;;;;;;4214046;28;20070;-69
2022/08/10 07:54:01;;;;;;;2.70;1.08;;;19.70;99.90;;;;;;4195296;28;20044;-64
2022/08/10 07:56:05;;;;;;;2.78;1.05;;;19.70;99.90;;;;;;4213407;28;20044;-67
2022/08/10 07:58:07;;;;;;;4.13;0.80;;;19.80;99.90;;;;;;4194762;28;20619;-67
2022/08/10 08:00:10;;;;;;;0.50;0.50;;;19.80;99.90;;;;;;4209840;28;20450;-65
2022/08/10 08:02:22;;;;;;;1.48;0.60;;;19.80;99.90;;;;;;4192121;28;20617;-64
2022/08/10 08:04:24;;;;;;;2.45;1.17;;;19.80;99.90;;;;;;4213455;28;20028;-65
2022/08/10 08:06:26;;;;;;;1.20;1.00;;;19.90;99.90;;;;;;4213550;28;20027;-66
2022/08/10 08:08:29;;;;;;;2.58;0.90;;;19.90;99.90;;;;;;4213143;28;20036;-66
2022/08/10 08:10:30;;;;;;;1.85;0.80;;;20.00;99.90;;;;;;4213405;28;20101;-65
2022/08/10 08:12:33;;;;;;;0.90;0.70;;;20.00;99.90;;;;;;4212673;28;20447;-69
2022/08/10 08:14:36;;;;;;;0.88;0.65;;;20.00;99.90;;;;;;4194424;28;20036;-66
2022/08/10 08:16:41;;;;;;;0.88;0.88;;;20.10;99.90;;;;;;4212672;28;20032;-71
2022/08/10 08:18:43;;;;;;;1.05;0.70;;;20.20;99.90;;;;;;4213440;28;20032;-74
2022/08/10 08:20:44;;;;;;;2.85;0.90;;;20.30;99.90;;;;;;4212816;28;20097;-65
2022/08/10 08:22:47;;;;;;;4.40;1.20;;;20.40;99.90;;;;;;4213959;28;20024;-65
2022/08/10 08:24:50;;;;;;;1.35;1.25;;;20.60;99.90;;;;;;4212547;28;20028;-66
2022/08/10 08:26:54;;;;;;;0.70;0.70;;;20.70;99.90;;;;;;4213428;28;20089;-66
2022/08/10 08:28:56;;;;;;;4.32;1.20;;;20.80;99.90;;;;;;4210765;28;20114;-63
2022/08/10 08:30:57;;;;;;;1.85;0.93;;;20.70;99.90;;;;;;4213225;28;20454;-65
2022/08/10 08:32:59;;;;;;;0.70;0.70;;;20.80;99.90;;;;;;4212389;28;20032;-64
2022/08/10 08:35:10;;;;;;;0.70;0.70;;;20.70;99.90;;;;;;4213187;28;20081;-66
2022/08/10 08:37:15;;;;;;;4.13;0.90;;;20.60;99.90;;;;;;4211493;28;20558;-65
2022/08/10 08:39:17;;;;;;;5.18;1.15;;;20.60;99.90;;;;;;4212944;28;20079;-64
2022/08/10 08:41:51;;;;;;;1.65;0.90;;;20.60;99.90;;;;;;4212336;28;20088;-67
2022/08/10 08:44:33;;;;;;;1.75;1.13;;;20.40;99.90;;;;;;4212706;28;20050;-66
2022/08/10 08:47:00;;;;;;;1.20;1.10;;;20.30;99.90;;;;;;4126591;28;20485;-62
2022/08/10 08:49:28;;;;;;;1.33;1.20;;;20.20;99.90;;;;;;4185051;28;20056;-65
2022/08/10 08:51:45;;;;;;;1.95;1.15;;;20.30;99.90;;;;;;4211667;28;20049;-67
2022/08/10 08:54:01;;;;;;;5.90;1.10;;;20.50;99.90;;;;;;4213262;28;20028;-62
2022/08/10 08:56:26;;;;;;;2.47;1.27;;;20.50;99.90;;;;;;4211913;28;20557;-67
2022/08/10 08:58:49;;;;;;;2.50;1.52;;;20.60;99.90;;;;;;4211697;28;20058;-65
2022/08/10 09:01:18;;;;;;;5.55;1.25;;;20.50;99.90;;;;;;4212635;28;20032;-66
2022/08/10 09:03:57;;;;;;;1.95;1.50;;;20.50;99.90;;;;;;4211788;28;20044;-65
2022/08/10 09:06:45;;;;;;;2.42;1.48;;;20.50;99.90;;;;;;4212729;28;20476;-65
2022/08/10 09:09:30;;;;;;;1.90;1.70;;;20.50;99.90;;;;;;4211489;28;20032;-66
2022/08/10 09:11:54;;;;;;;4.97;1.10;;;20.50;99.90;;;;;;4211473;28;20024;-68
2022/08/10 09:14:07;;;;;;;6.03;2.00;;;20.50;99.90;;;;;;4211765;28;20108;-67
2022/08/10 09:16:23;;;;;;;1.40;1.30;;;20.50;99.90;;;;;;4211283;28;20069;-64
2022/08/10 09:18:48;;;;;;;1.80;1.02;;;20.60;99.90;;;;;;4211689;28;20070;-64
2022/08/10 09:21:12;;;;;;;1.95;1.10;;;20.60;99.90;;;;;;4211365;28;20427;-65
2022/08/10 09:23:24;;;;;;;5.63;1.33;;;20.50;99.90;;;;;;4212755;28;20028;-66
2022/08/10 09:25:33;;;;;;;4.18;1.15;;;20.50;99.90;;;;;;4210422;28;20101;-67
2022/08/10 09:27:44;;;;;;;2.38;1.25;;;20.40;99.90;;;;;;4211933;28;20028;-66
2022/08/10 09:29:56;;;;;;;1.40;1.30;;;20.50;99.90;;;;;;4211320;28;20036;-68
2022/08/10 09:32:09;;;;;;;2.67;1.65;;;20.50;99.90;;;;;;4212363;28;20028;-69
2022/08/10 09:34:33;;;;;;;1.10;0.90;;;20.50;99.90;;;;;;4211117;28;20430;-64
2022/08/10 09:36:55;;;;;;;1.48;1.38;;;20.50;99.90;;;;;;4211805;28;20519;-67
2022/08/10 09:39:33;;;;;;;1.15;1.00;;;20.60;99.90;;;;;;4210426;28;20189;-66
2022/08/10 09:41:57;;;;;;;3.78;1.35;;;20.60;99.90;;;;;;4211712;28;20036;-67
2022/08/10 09:44:26;;;;;;;3.05;1.05;;;20.70;99.90;;;;;;4211061;28;20085;-64
2022/08/10 09:46:51;;;;;;;9.82;2.45;;;20.80;99.90;;;;;;4210415;28;20144;-67
2022/08/10 09:49:16;;;;;;;5.60;0.90;;;20.90;99.90;;;;;;4211955;28;20024;-65
2022/08/10 09:51:43;;;;;;;2.17;0.70;;;20.90;99.90;;;;;;4210265;28;20036;-68
2022/08/10 09:54:28;;;;;;;1.38;0.52;;;21.00;99.90;;;;;;4212512;28;20024;-66
2022/08/10 09:56:52;;;;;;;1.30;0.70;;;21.00;99.90;;;;;;4210777;28;20048;-61
2022/08/10 09:58:59;;;;;;;2.60;0.82;;;21.00;99.90;;;;;;4210505;28;20054;-62
2022/08/10 10:01:26;;;;;;;2.25;0.80;;;21.20;99.90;;;;;;4211043;28;20557;-63
2022/08/10 10:03:41;;;;;;;8.77;1.10;;;21.30;99.90;;;;;;4210774;28;20106;-63
2022/08/10 10:06:02;;;;;;;3.13;0.88;;;21.50;99.90;;;;;;4210502;28;20043;-65
2022/08/10 10:08:33;;;;;;;1.52;0.50;;;21.50;99.90;;;;;;4210688;28;20065;-67
2022/08/10 10:10:47;;;;;;;1.13;0.50;;;21.60;99.90;;;;;;4211672;28;20044;-67
2022/08/10 10:12:57;;;;;;;2.35;0.30;;;21.70;99.90;;;;;;4191572;28;20090;-64
2022/08/10 10:15:20;;;;;;;1.67;1.05;;;21.80;99.90;;;;;;4211718;28;20077;-66
2022/08/10 10:17:29;;;;;;;3.30;1.50;;;21.90;99.90;;;;;;4210548;28;20028;-65
2022/08/10 10:19:36;;;;;;;3.35;1.23;;;22.10;99.90;;;;;;4193253;28;20462;-71
2022/08/10 10:21:45;;;;;;;2.35;0.85;;;22.30;99.90;;;;;;4210296;28;20036;-65
2022/08/10 10:24:05;;;;;;;2.97;0.20;;;22.50;99.90;;;;;;4211716;28;20109;-67
2022/08/10 10:26:20;;;;;;;0.30;0.30;;;22.60;99.90;;;;;;4210196;28;20089;-70
2022/08/10 10:28:40;;;;;;;0.95;0.85;;;22.60;99.90;;;;;;4210803;28;20024;-61
2022/08/10 10:31:03;;;;;;;0.45;0.40;;;22.50;99.90;;;;;;4209989;28;20496;-63
2022/08/10 10:33:11;;;;;;;0.82;0.50;;;22.40;99.90;;;;;;4211543;28;20492;-64
2022/08/10 10:35:15;;;;;;;0.45;0.25;;;22.40;99.90;;;;;;4210169;28;20085;-66
2022/08/10 10:37:21;;;;;;;0.60;0.50;;;22.30;99.90;;;;;;4210682;28;20055;-65
2022/08/10 10:39:24;;;;;;;0.80;0.30;;;22.40;99.90;;;;;;4209754;28;20472;-61
2022/08/10 10:41:25;;;;;;;1.35;0.35;;;22.40;99.90;;;;;;4211230;28;20077;-63
2022/08/10 10:43:52;;;;;;;1.52;0.30;;;22.50;99.90;;;;;;4209550;28;20491;-65
2022/08/10 10:46:15;;;;;;;0.55;0.30;;;22.50;99.90;;;;;;4211244;28;20028;-65
2022/08/10 10:48:38;;;;;;;0.70;0.43;;;22.50;99.90;;;;;;4210310;28;20110;-63
2022/08/10 10:51:18;;;;;;;0.32;0.32;;;22.50;99.90;;;;;;4210642;28;20032;-64
2022/08/10 10:53:33;;;;;;;0.52;0.40;;;22.70;99.90;;;;;;4159678;28;20048;-62
2022/08/10 10:55:52;;;;;;;0.68;0.50;;;22.80;99.90;;;;;;4209859;28;20101;-64
2022/08/10 10:58:00;;;;;;;1.17;0.30;;;22.80;99.90;;;;;;4210296;28;20077;-63
2022/08/10 11:00:07;;;;;;;0.30;0.30;;;22.90;99.90;;;;;;4210019;28;20032;-65
2022/08/10 11:02:45;;;;;;;3.70;0.98;;;22.90;99.90;;;;;;4210514;28;20117;-64
2022/08/10 11:05:11;;;;;;;0.52;0.38;;;22.90;99.90;;;;;;4210123;28;20020;-62
2022/08/10 11:07:18;;;;;;;1.30;0.47;;;23.10;99.90;;;;;;4211140;28;20081;-63